Hovedside
METAR-TAF:

METAR-TAF

Lufthavner :

Kalmar lufthavn

Kalmar, Sverige

breddegrad: 56-44N, lengdegrad: 016-18E, høyde over havet: 16 m

Gjeldene værobservasjon

Denne rapporten ble laget for 23 minutter siden, klokken 06:20 UTC
Vind 10 kt fra Sør-sørvest
Temperatur 7°C
Luftfuktighet 87%
Trykk 1014 hPa
Sikt 10 km eller mer
Få skyer i en høyde av 1600 ft
Spredte skyer i en høyde av 1800 ft

METAR: ESMQ 170620Z 20010KT 9999 FEW016 SCT018 07/05 Q1014

Tid: 07:43 (06:43 UTC)

Varsel

Denne rapporten ble laget for 1 time og 13 minutter siden, klokken 05:30 UTC
Varsel gyldig fra 17. klokken 06 UTC til 17. klokken 15 UTC
Vind 12 kt fra Sør
Sikt: 8000 m
Spredte skyer i en høyde av 1500 ft

TAF: ESMQ 170530Z 1706/1715 19012KT 8000 SCT015

Værobservasjoner og værvarsel for over 4000 flyplasser (METAR- og TAF-rapporter).

Tilgjengelige stasjoner er representert av de røde og gule prikkene på kartet.

Hold musepekeren over prikken for å se navnet på stasjonen.

Klikk så for å se værobservasjoner og -varsler.

For å forandre kartet kan du klikke på den grønne knappen med svart kryss for å zoome inn, på den grønne knappen med strek for å zoome ut, eller på de grønne pilene for å se tilstøtende kart.


METAR-TAF: